createdAt,value
2022-12-03T00:00:12.183Z,58
2022-12-03T00:01:06.882Z,58.87
2022-12-03T00:02:06.934Z,57.55
2022-12-03T00:03:07.088Z,57.56
2022-12-03T00:04:06.985Z,57.48
2022-12-03T00:05:06.915Z,57.48
2022-12-03T00:06:06.899Z,57.79
2022-12-03T00:07:06.883Z,57.79
2022-12-03T00:08:06.960Z,57.62
2022-12-03T00:09:06.879Z,57.12
2022-12-03T00:10:06.894Z,57.53
2022-12-03T00:11:06.881Z,57.1
2022-12-03T00:12:06.881Z,57.44
2022-12-03T00:13:06.880Z,58.21
2022-12-03T00:14:06.895Z,58.1
2022-12-03T00:15:06.891Z,58.64
2022-12-03T00:16:06.970Z,57.75
2022-12-03T00:17:06.874Z,57.75
2022-12-03T00:18:06.877Z,57.4
2022-12-03T00:19:06.878Z,57.4
2022-12-03T00:20:06.892Z,57.61
2022-12-03T00:21:06.876Z,57.52
2022-12-03T00:22:06.878Z,57.51
2022-12-03T00:23:06.879Z,57.46
2022-12-03T00:24:06.883Z,57.2
2022-12-03T00:25:06.905Z,57.47
2022-12-03T00:26:06.880Z,57.43
2022-12-03T00:27:06.890Z,57.53
2022-12-03T00:28:06.904Z,57.59
2022-12-03T00:29:06.916Z,57.69
2022-12-03T00:30:06.913Z,57.69
2022-12-03T00:31:06.976Z,57.9
2022-12-03T00:32:06.899Z,57.16
2022-12-03T00:33:06.888Z,57.4
2022-12-03T00:34:06.892Z,57.89
2022-12-03T00:35:06.891Z,57.89
2022-12-03T00:36:06.903Z,57.84
2022-12-03T00:37:06.913Z,57.57
2022-12-03T00:38:06.894Z,57.72
2022-12-03T00:39:06.899Z,57.72
2022-12-03T00:40:06.910Z,57.32
2022-12-03T00:41:06.896Z,57.6
2022-12-03T00:42:06.894Z,57.25
2022-12-03T00:43:06.905Z,57.54
2022-12-03T00:44:06.915Z,56.94
2022-12-03T00:45:06.907Z,56.53
2022-12-03T00:46:06.935Z,56.32
2022-12-03T00:47:07.048Z,58.4
2022-12-03T00:48:06.893Z,57.42
2022-12-03T00:49:06.930Z,56.74
2022-12-03T00:50:06.909Z,57.19
2022-12-03T00:51:06.897Z,56.67
2022-12-03T00:52:06.894Z,56.72
2022-12-03T00:53:06.887Z,56.12
2022-12-03T00:54:06.892Z,56.63
2022-12-03T00:55:06.983Z,57.19
2022-12-03T00:56:06.897Z,57.72
2022-12-03T00:57:06.899Z,57.57
2022-12-03T00:58:06.879Z,57.96
2022-12-03T00:59:06.909Z,58.12
2022-12-03T01:00:06.920Z,58.12
2022-12-03T01:01:06.891Z,56.52
2022-12-03T01:02:06.959Z,57.02
2022-12-03T01:03:06.891Z,56.95
2022-12-03T01:04:06.896Z,57.05
2022-12-03T01:05:06.986Z,57.09
2022-12-03T01:06:06.892Z,56.96
2022-12-03T01:07:06.904Z,56.98
2022-12-03T01:08:06.976Z,56.67
2022-12-03T01:09:06.887Z,57.62
2022-12-03T01:10:06.908Z,57.22
2022-12-03T01:11:06.902Z,56.69
2022-12-03T01:12:06.900Z,56.94
2022-12-03T01:13:06.904Z,56.22
2022-12-03T01:14:06.920Z,56.56
2022-12-03T01:15:06.912Z,56.66
2022-12-03T01:16:06.978Z,56.77
2022-12-03T01:17:06.908Z,57.61
2022-12-03T01:18:06.884Z,57.61
2022-12-03T01:19:06.901Z,56.8
2022-12-03T01:20:06.901Z,56.82
2022-12-03T01:21:06.874Z,56.6
2022-12-03T01:22:06.876Z,56.74
2022-12-03T01:23:06.884Z,57.78
2022-12-03T01:24:06.876Z,56.64
2022-12-03T01:25:06.890Z,57.31
2022-12-03T01:26:06.876Z,57.44
2022-12-03T01:27:06.890Z,57.16
2022-12-03T01:28:06.875Z,57.45
2022-12-03T01:29:06.894Z,57.55
2022-12-03T01:30:06.917Z,56.92
2022-12-03T01:31:06.920Z,57.27
2022-12-03T01:32:06.978Z,56.62
2022-12-03T01:33:06.879Z,56.66
2022-12-03T01:34:06.881Z,56.59
2022-12-03T01:35:06.955Z,56.58
2022-12-03T01:36:06.878Z,57.17
2022-12-03T01:37:06.875Z,56.5
2022-12-03T01:38:06.973Z,56.83
2022-12-03T01:39:06.876Z,56.48
2022-12-03T01:40:06.915Z,56.14
2022-12-03T01:41:11.480Z,56.14
2022-12-03T01:42:06.888Z,56.97
2022-12-03T01:43:06.901Z,57.27
2022-12-03T01:44:06.911Z,56.69
2022-12-03T01:45:06.919Z,56.53
2022-12-03T01:46:06.948Z,57.41
2022-12-03T01:47:06.987Z,57.11
2022-12-03T01:48:06.900Z,56.89
2022-12-03T01:49:06.898Z,57.13
2022-12-03T01:50:06.912Z,56.92
2022-12-03T01:51:06.903Z,57.55
2022-12-03T01:52:06.892Z,57.86
2022-12-03T01:53:06.889Z,57.49
2022-12-03T01:54:06.894Z,57.97
2022-12-03T01:55:06.913Z,57.29
2022-12-03T01:56:06.893Z,57.81
2022-12-03T01:57:06.898Z,58.29
2022-12-03T01:58:06.892Z,58.52
2022-12-03T01:59:06.909Z,57.09
2022-12-03T02:00:06.924Z,57.09
2022-12-03T02:01:06.905Z,56.88
2022-12-03T02:02:06.951Z,56.51
2022-12-03T02:03:06.904Z,56.32
2022-12-03T02:04:06.929Z,56.38
2022-12-03T02:05:06.924Z,56.81
2022-12-03T02:06:06.899Z,57.46
2022-12-03T02:07:06.896Z,58.04
2022-12-03T02:08:06.949Z,57.8
2022-12-03T02:09:06.877Z,57.72
2022-12-03T02:10:06.909Z,58.07
2022-12-03T02:11:06.898Z,58.53
2022-12-03T02:12:06.877Z,58.53
2022-12-03T02:13:06.893Z,58.23
2022-12-03T02:14:06.910Z,57.01
2022-12-03T02:15:06.908Z,57.01
2022-12-03T02:16:06.946Z,57.5
2022-12-03T02:17:06.895Z,57.69
2022-12-03T02:18:06.904Z,57.26
2022-12-03T02:19:06.900Z,56.64
2022-12-03T02:20:06.918Z,57.66
2022-12-03T02:21:06.897Z,57.18
2022-12-03T02:22:06.901Z,57.26
2022-12-03T02:23:06.895Z,57.05
2022-12-03T02:24:06.898Z,56.72
2022-12-03T02:25:06.923Z,57.76
2022-12-03T02:26:06.882Z,57.76
2022-12-03T02:27:06.881Z,58.19
2022-12-03T02:28:06.881Z,58.62
2022-12-03T02:29:06.906Z,57.84
2022-12-03T02:30:06.907Z,57.58
2022-12-03T02:31:06.936Z,58.45
2022-12-03T02:32:06.875Z,58.75
2022-12-03T02:33:06.885Z,57.36
2022-12-03T02:34:06.874Z,57.06
2022-12-03T02:35:06.897Z,57.67
2022-12-03T02:36:06.880Z,56.98
2022-12-03T02:37:06.881Z,57.39
2022-12-03T02:38:06.879Z,57.24
2022-12-03T02:39:06.882Z,56.8
2022-12-03T02:40:06.886Z,56.66
2022-12-03T02:41:06.879Z,56.92
2022-12-03T02:42:06.878Z,57.17
2022-12-03T02:43:06.874Z,57.16
2022-12-03T02:44:06.891Z,56.54
2022-12-03T02:45:06.887Z,56.6
2022-12-03T02:46:06.895Z,56.42
2022-12-03T02:47:06.909Z,56.45
2022-12-03T02:48:06.875Z,56.8
2022-12-03T02:49:06.892Z,56.2
2022-12-03T02:50:06.901Z,56.73
2022-12-03T02:51:06.888Z,56.57
2022-12-03T02:52:06.895Z,56
2022-12-03T02:53:06.895Z,56.05
2022-12-03T02:54:06.895Z,56.05
2022-12-03T02:55:06.911Z,56.94
2022-12-03T02:56:06.888Z,56.08
2022-12-03T02:57:06.888Z,56.1
2022-12-03T02:58:06.884Z,55.8
2022-12-03T02:59:06.907Z,56.24
2022-12-03T03:00:06.910Z,56.24
2022-12-03T03:01:06.945Z,56.67
2022-12-03T03:02:06.931Z,57.36
2022-12-03T03:03:06.884Z,57.24
2022-12-03T03:04:06.898Z,57.48
2022-12-03T03:05:06.906Z,56.67
2022-12-03T03:06:06.890Z,56.62
2022-12-03T03:07:06.893Z,56.6
2022-12-03T03:08:06.915Z,56.04
2022-12-03T03:09:06.889Z,56.85
2022-12-03T03:10:06.902Z,57.17
2022-12-03T03:11:06.884Z,57.03
2022-12-03T03:12:06.884Z,56.65
2022-12-03T03:13:06.893Z,56.98
2022-12-03T03:14:06.909Z,56.3
2022-12-03T03:15:06.911Z,56.2
2022-12-03T03:16:06.944Z,56.2
2022-12-03T03:17:06.892Z,55.95
2022-12-03T03:18:06.891Z,55.82
2022-12-03T03:19:06.888Z,56.72
2022-12-03T03:20:06.911Z,56.22
2022-12-03T03:21:06.905Z,56.44
2022-12-03T03:22:06.895Z,56.44
2022-12-03T03:23:06.906Z,56.83
2022-12-03T03:24:06.889Z,56.84
2022-12-03T03:25:06.909Z,56.11
2022-12-03T03:26:06.887Z,56.49
2022-12-03T03:27:06.890Z,57.45
2022-12-03T03:28:06.884Z,56.94
2022-12-03T03:29:06.914Z,57.71
2022-12-03T03:30:06.890Z,57.71
2022-12-03T03:31:06.877Z,57.47
2022-12-03T03:32:06.908Z,57.47
2022-12-03T03:33:06.894Z,57.25
2022-12-03T03:34:06.870Z,56.68
2022-12-03T03:35:06.898Z,56.9
2022-12-03T03:36:06.875Z,56.85
2022-12-03T03:37:06.878Z,56.31
2022-12-03T03:38:06.877Z,58.02
2022-12-03T03:39:06.873Z,57.41
2022-12-03T03:40:06.894Z,57.23
2022-12-03T03:41:06.875Z,57.15
2022-12-03T03:42:06.879Z,57.07
2022-12-03T03:43:06.877Z,57.44
2022-12-03T03:44:06.883Z,58.08
2022-12-03T03:45:06.883Z,58.53
2022-12-03T03:46:06.982Z,57.56
2022-12-03T03:47:06.870Z,57.68
2022-12-03T03:48:06.874Z,57.87
2022-12-03T03:49:06.869Z,57.92
2022-12-03T03:50:06.888Z,58.3
2022-12-03T03:51:06.874Z,57.29
2022-12-03T03:52:06.879Z,57.29
2022-12-03T03:53:06.894Z,56.83
2022-12-03T03:54:06.876Z,56.81
2022-12-03T03:55:06.896Z,56.31
2022-12-03T03:56:06.891Z,57.01
2022-12-03T03:57:06.891Z,57.03
2022-12-03T03:58:06.891Z,56.56
2022-12-03T03:59:06.911Z,56.56
2022-12-03T04:00:06.918Z,56.56
2022-12-03T04:01:06.985Z,57.73
2022-12-03T04:02:06.902Z,56.95
2022-12-03T04:03:06.891Z,56.4
2022-12-03T04:04:06.930Z,57.15
2022-12-03T04:05:06.910Z,56.4
2022-12-03T04:06:06.886Z,56.65
2022-12-03T04:07:06.886Z,57.3
2022-12-03T04:08:06.966Z,56.47
2022-12-03T04:09:06.897Z,56.37
2022-12-03T04:10:06.914Z,56.46
2022-12-03T04:11:06.888Z,56.64
2022-12-03T04:12:06.896Z,57.33
2022-12-03T04:13:06.886Z,57.6
2022-12-03T04:14:06.917Z,55.78
2022-12-03T04:15:06.910Z,55.91
2022-12-03T04:16:06.942Z,55.57
2022-12-03T04:17:06.887Z,55.89
2022-12-03T04:18:06.891Z,54.27
2022-12-03T04:19:06.887Z,55.65
2022-12-03T04:20:06.904Z,55.4
2022-12-03T04:21:06.888Z,55.33
2022-12-03T04:22:06.904Z,56.99
2022-12-03T04:23:06.888Z,56.45
2022-12-03T04:24:06.892Z,55.94
2022-12-03T04:25:07.002Z,56.36
2022-12-03T04:26:06.885Z,55.67
2022-12-03T04:27:06.890Z,56.04
2022-12-03T04:28:06.891Z,55.89
2022-12-03T04:29:06.913Z,56.5
2022-12-03T04:30:06.898Z,56.5
2022-12-03T04:31:06.932Z,57.5
2022-12-03T04:32:06.884Z,56.32
2022-12-03T04:33:06.886Z,56.18
2022-12-03T04:34:06.883Z,56.24
2022-12-03T04:35:06.959Z,57.04
2022-12-03T04:36:06.868Z,56.94
2022-12-03T04:37:06.887Z,56.48
2022-12-03T04:38:06.887Z,56.48
2022-12-03T04:39:06.884Z,56.19
2022-12-03T04:40:06.885Z,56.95
2022-12-03T04:41:06.878Z,55.92
2022-12-03T04:42:06.874Z,55.94
2022-12-03T04:43:06.869Z,56.18
2022-12-03T04:44:06.967Z,56.45
2022-12-03T04:45:06.891Z,56.45
2022-12-03T04:46:06.946Z,56.67
2022-12-03T04:47:06.888Z,57.03
2022-12-03T04:48:06.874Z,57.5
2022-12-03T04:49:06.876Z,56.58
2022-12-03T04:50:06.892Z,56.97
2022-12-03T04:51:06.902Z,55.54
2022-12-03T04:52:06.877Z,56.52
2022-12-03T04:53:06.874Z,56.57
2022-12-03T04:54:06.871Z,55.47
2022-12-03T04:55:06.887Z,55.32
2022-12-03T04:56:06.873Z,55.02
2022-12-03T04:57:06.868Z,56.17
2022-12-03T04:58:06.874Z,55.61
2022-12-03T04:59:10.124Z,55.79
2022-12-03T05:00:06.916Z,56.08
2022-12-03T05:01:06.929Z,57.06
2022-12-03T05:02:06.945Z,57.06
2022-12-03T05:03:06.939Z,56.09
2022-12-03T05:04:06.881Z,56.05
2022-12-03T05:05:06.911Z,55.63
2022-12-03T05:06:06.895Z,55.54
2022-12-03T05:07:06.880Z,55.53
2022-12-03T05:08:06.963Z,56.13
2022-12-03T05:09:06.882Z,56.24
2022-12-03T05:10:06.892Z,56.24
2022-12-03T05:11:06.881Z,57.08
2022-12-03T05:12:06.893Z,56.87
2022-12-03T05:13:06.894Z,56.25
2022-12-03T05:14:06.906Z,57.27
2022-12-03T05:15:06.906Z,57
2022-12-03T05:16:06.897Z,57.69
2022-12-03T05:17:07.004Z,57.6
2022-12-03T05:18:06.892Z,57.63
2022-12-03T05:19:06.894Z,57.16
2022-12-03T05:20:06.900Z,57.16
2022-12-03T05:21:06.883Z,57.59
2022-12-03T05:22:06.891Z,57.67
2022-12-03T05:23:06.887Z,56.43
2022-12-03T05:24:06.890Z,56.55
2022-12-03T05:25:06.906Z,55.89
2022-12-03T05:26:06.893Z,56.14
2022-12-03T05:27:06.913Z,56.52
2022-12-03T05:28:06.882Z,56.52
2022-12-03T05:29:06.908Z,55.88
2022-12-03T05:30:06.907Z,55.88
2022-12-03T05:31:06.944Z,57.16
2022-12-03T05:32:06.884Z,55.97
2022-12-03T05:33:06.889Z,55.68
2022-12-03T05:34:06.893Z,55.68
2022-12-03T05:35:06.902Z,56.35
2022-12-03T05:36:06.869Z,56.35
2022-12-03T05:37:06.892Z,55.77
2022-12-03T05:38:06.904Z,55.82
2022-12-03T05:39:06.896Z,56.82
2022-12-03T05:40:06.909Z,56.82
2022-12-03T05:41:06.890Z,55.49
2022-12-03T05:42:06.885Z,55.98
2022-12-03T05:43:06.886Z,56.16
2022-12-03T05:44:06.909Z,55.95
2022-12-03T05:45:06.908Z,55.86
2022-12-03T05:46:06.979Z,56.26
2022-12-03T05:47:06.877Z,55.92
2022-12-03T05:48:06.888Z,57.42
2022-12-03T05:49:06.889Z,57.89
2022-12-03T05:50:06.904Z,57.89
2022-12-03T05:51:06.877Z,56.93
2022-12-03T05:52:06.883Z,57.04
2022-12-03T05:53:06.899Z,56.3
2022-12-03T05:54:06.871Z,56.3
2022-12-03T05:55:06.885Z,57.39
2022-12-03T05:56:06.872Z,57.1
2022-12-03T05:57:06.880Z,57.46
2022-12-03T05:58:06.870Z,57.46
2022-12-03T05:59:06.920Z,56.41
2022-12-03T06:00:07.084Z,56.84
2022-12-03T06:01:06.873Z,57.31
2022-12-03T06:02:06.969Z,57.43
2022-12-03T06:03:07.028Z,56.62
2022-12-03T06:04:06.976Z,57.22
2022-12-03T06:05:06.932Z,56.78
2022-12-03T06:06:06.872Z,57.33
2022-12-03T06:07:09.726Z,56.64
2022-12-03T06:08:06.928Z,56.72
2022-12-03T06:09:06.871Z,57.04
2022-12-03T06:10:06.905Z,56.12
2022-12-03T06:11:06.875Z,56.18
2022-12-03T06:12:06.887Z,56.54
2022-12-03T06:13:06.875Z,56.78
2022-12-03T06:14:06.893Z,56.75
2022-12-03T06:15:06.890Z,57.17
2022-12-03T06:16:07.017Z,57.35
2022-12-03T06:17:06.869Z,57.23
2022-12-03T06:18:06.870Z,56.54
2022-12-03T06:19:06.889Z,55.89
2022-12-03T06:20:06.893Z,55.89
2022-12-03T06:21:06.888Z,56.83
2022-12-03T06:22:06.891Z,57.46
2022-12-03T06:23:06.891Z,57.07
2022-12-03T06:24:06.886Z,57.76
2022-12-03T06:25:07.038Z,58.18
2022-12-03T06:26:06.888Z,58.03
2022-12-03T06:27:06.887Z,57.98
2022-12-03T06:28:06.884Z,58.79
2022-12-03T06:29:06.897Z,57.74
2022-12-03T06:30:06.895Z,57.74
2022-12-03T06:31:07.011Z,57.18
2022-12-03T06:32:06.887Z,57.75
2022-12-03T06:33:06.891Z,57.48
2022-12-03T06:34:06.891Z,57.19
2022-12-03T06:35:06.903Z,57.03
2022-12-03T06:36:06.889Z,57.16
2022-12-03T06:37:06.886Z,57.25
2022-12-03T06:38:06.889Z,57.78
2022-12-03T06:39:06.888Z,56.99
2022-12-03T06:40:06.886Z,56.99
2022-12-03T06:41:06.892Z,56.7
2022-12-03T06:42:06.889Z,56.5
2022-12-03T06:43:06.875Z,56.6
2022-12-03T06:44:06.907Z,57.08
2022-12-03T06:45:06.918Z,57.08
2022-12-03T06:46:06.934Z,57.63
2022-12-03T06:47:06.890Z,57.16
2022-12-03T06:48:06.888Z,56.69
2022-12-03T06:49:06.886Z,57.73
2022-12-03T06:50:06.890Z,57.73
2022-12-03T06:51:06.890Z,57.74
2022-12-03T06:52:06.885Z,56.91
2022-12-03T06:53:06.890Z,56.85
2022-12-03T06:54:06.873Z,56.94
2022-12-03T06:55:06.905Z,56.47
2022-12-03T06:56:06.882Z,57.28
2022-12-03T06:57:06.896Z,56.86
2022-12-03T06:58:06.888Z,56.83
2022-12-03T06:59:06.908Z,57.68
2022-12-03T07:00:06.918Z,57.68
2022-12-03T07:01:06.882Z,56.18
2022-12-03T07:02:06.911Z,56.1
2022-12-03T07:03:06.927Z,56.06
2022-12-03T07:04:06.892Z,56.79
2022-12-03T07:05:06.903Z,56.89
2022-12-03T07:06:06.874Z,56.89
2022-12-03T07:07:06.874Z,57.52
2022-12-03T07:08:06.931Z,56.74
2022-12-03T07:09:06.877Z,56.52
2022-12-03T07:10:06.933Z,55.94
2022-12-03T07:11:06.873Z,56.1
2022-12-03T07:12:06.873Z,55.85
2022-12-03T07:13:06.870Z,55.81
2022-12-03T07:14:06.919Z,56.06
2022-12-03T07:15:06.885Z,56.51
2022-12-03T07:16:06.937Z,56.35
2022-12-03T07:17:06.874Z,56.47
2022-12-03T07:18:06.870Z,56.36
2022-12-03T07:19:06.892Z,56.28
2022-12-03T07:20:06.912Z,56.35
2022-12-03T07:21:06.874Z,56.04
2022-12-03T07:22:06.875Z,56.07
2022-12-03T07:23:06.871Z,55.46
2022-12-03T07:24:06.880Z,55.27
2022-12-03T07:25:06.885Z,55.69
2022-12-03T07:26:06.871Z,56.15
2022-12-03T07:27:06.876Z,56.32
2022-12-03T07:28:06.868Z,57.33
2022-12-03T07:29:06.883Z,57.35
2022-12-03T07:30:06.888Z,56.74
2022-12-03T07:31:06.938Z,57.1
2022-12-03T07:32:06.874Z,57.1
2022-12-03T07:33:06.889Z,56.69
2022-12-03T07:34:06.883Z,57.05
2022-12-03T07:35:06.911Z,56.85
2022-12-03T07:36:06.897Z,56.76
2022-12-03T07:37:06.880Z,56.57
2022-12-03T07:38:06.888Z,57.59
2022-12-03T07:39:06.871Z,56.43
2022-12-03T07:40:06.886Z,56.43
2022-12-03T07:41:06.882Z,55.88
2022-12-03T07:42:06.889Z,56.16
2022-12-03T07:43:06.894Z,58.02
2022-12-03T07:44:13.813Z,56.63
2022-12-03T07:45:06.910Z,57.07
2022-12-03T07:46:06.893Z,56.74
2022-12-03T07:47:06.978Z,56.36
2022-12-03T07:48:06.891Z,56.42
2022-12-03T07:49:06.888Z,56.09
2022-12-03T07:50:06.889Z,56.09
2022-12-03T07:51:06.871Z,56.58
2022-12-03T07:52:06.893Z,57.08
2022-12-03T07:53:06.900Z,56.26
2022-12-03T07:54:06.892Z,56.14
2022-12-03T07:55:06.927Z,56.46
2022-12-03T07:56:06.896Z,56.1
2022-12-03T07:57:06.889Z,56.01
2022-12-03T07:58:06.889Z,56.11
2022-12-03T07:59:06.907Z,55.94
2022-12-03T08:00:06.918Z,55.94
2022-12-03T08:01:06.963Z,56.52
2022-12-03T08:02:06.939Z,55.03
2022-12-03T08:03:06.881Z,55.48
2022-12-03T08:04:06.877Z,55.83
2022-12-03T08:05:06.906Z,55.2
2022-12-03T08:06:06.882Z,54.81
2022-12-03T08:07:06.890Z,53.54
2022-12-03T08:08:07.008Z,54.84
2022-12-03T08:09:06.889Z,55.22
2022-12-03T08:10:06.893Z,55.22
2022-12-03T08:11:06.878Z,55.29
2022-12-03T08:12:06.891Z,54.39
2022-12-03T08:13:06.898Z,55.44
2022-12-03T08:14:06.917Z,54.81
2022-12-03T08:15:06.909Z,54.97
2022-12-03T08:16:06.966Z,54.08
2022-12-03T08:17:06.885Z,56.36
2022-12-03T08:18:06.892Z,56.36
2022-12-03T08:19:06.874Z,54.98
2022-12-03T08:20:06.890Z,54.65
2022-12-03T08:21:06.880Z,55.09
2022-12-03T08:22:06.878Z,55.09
2022-12-03T08:23:06.878Z,54.36
2022-12-03T08:24:06.874Z,54.39
2022-12-03T08:25:06.892Z,54.49
2022-12-03T08:26:06.872Z,53.59
2022-12-03T08:27:06.870Z,54.75
2022-12-03T08:28:06.870Z,54.77
2022-12-03T08:29:06.883Z,56.03
2022-12-03T08:30:06.898Z,55.53
2022-12-03T08:31:06.875Z,54.18
2022-12-03T08:32:06.952Z,55.59
2022-12-03T08:33:06.874Z,54.39
2022-12-03T08:34:06.878Z,54.39
2022-12-03T08:35:06.889Z,54.39
2022-12-03T08:36:06.873Z,53.99
2022-12-03T08:37:06.873Z,54.52
2022-12-03T08:38:06.874Z,54.9
2022-12-03T08:39:06.870Z,54.43
2022-12-03T08:40:06.888Z,55.33
2022-12-03T08:41:06.874Z,54.53
2022-12-03T08:42:12.120Z,53.56
2022-12-03T08:43:06.879Z,54.58
2022-12-03T08:44:06.891Z,55.49
2022-12-03T08:45:06.892Z,54.55
2022-12-03T08:46:06.947Z,54.99
2022-12-03T08:47:06.886Z,54.33
2022-12-03T08:48:06.894Z,53.77
2022-12-03T08:49:06.892Z,54.28
2022-12-03T08:50:06.886Z,54.28
2022-12-03T08:51:06.883Z,54.77
2022-12-03T08:52:06.886Z,54.93
2022-12-03T08:53:06.900Z,54.4
2022-12-03T08:54:06.897Z,54.65
2022-12-03T08:55:06.906Z,53.95
2022-12-03T08:56:06.890Z,53.58
2022-12-03T08:57:06.892Z,53.44
2022-12-03T08:58:06.889Z,53.99
2022-12-03T08:59:06.914Z,53.55
2022-12-03T09:00:06.896Z,53.55
2022-12-03T09:01:07.008Z,53.87
2022-12-03T09:02:06.900Z,54.49
2022-12-03T09:03:06.878Z,54.48
2022-12-03T09:04:06.933Z,54.34
2022-12-03T09:05:06.912Z,54.22
2022-12-03T09:06:06.880Z,54.18
2022-12-03T09:07:06.892Z,54.47
2022-12-03T09:08:06.992Z,54.71
2022-12-03T09:09:07.068Z,54.45
2022-12-03T09:10:06.913Z,54.45
2022-12-03T09:11:06.885Z,53.76
2022-12-03T09:12:06.889Z,53.83
2022-12-03T09:13:06.891Z,53.73
2022-12-03T09:14:06.904Z,54.25
2022-12-03T09:15:06.905Z,53.98
2022-12-03T09:16:06.919Z,53.51
2022-12-03T09:17:07.025Z,53.32
2022-12-03T09:18:06.886Z,54.13
2022-12-03T09:19:06.889Z,54.09
2022-12-03T09:20:06.895Z,54.09
2022-12-03T09:21:06.888Z,53.48
2022-12-03T09:22:06.891Z,54.25
2022-12-03T09:23:06.888Z,53.75
2022-12-03T09:24:06.923Z,53.63
2022-12-03T09:25:06.902Z,53.19
2022-12-03T09:26:06.892Z,53.43
2022-12-03T09:27:06.884Z,52.87
2022-12-03T09:28:06.893Z,53.06
2022-12-03T09:29:11.924Z,53.34
2022-12-03T09:30:06.883Z,53.34
2022-12-03T09:31:06.890Z,53.63
2022-12-03T09:32:06.998Z,53.62
2022-12-03T09:33:06.874Z,53.62
2022-12-03T09:34:06.887Z,53.21
2022-12-03T09:35:06.913Z,53.54
2022-12-03T09:36:06.871Z,53.35
2022-12-03T09:37:06.880Z,52.83
2022-12-03T09:38:06.870Z,53.07
2022-12-03T09:39:06.876Z,53.17
2022-12-03T09:40:06.890Z,53.22
2022-12-03T09:41:06.870Z,52.96
2022-12-03T09:42:06.874Z,52.19
2022-12-03T09:43:06.870Z,51.48
2022-12-03T09:44:09.648Z,52.06
2022-12-03T09:45:06.879Z,52.56
2022-12-03T09:46:06.913Z,52.06
2022-12-03T09:47:06.870Z,53.41
2022-12-03T09:48:06.876Z,52.46
2022-12-03T09:49:12.254Z,51.82
2022-12-03T09:50:06.884Z,51.83
2022-12-03T09:51:06.874Z,51.88
2022-12-03T09:52:06.961Z,50.42
2022-12-03T09:53:06.893Z,51.37
2022-12-03T09:54:06.868Z,51.32
2022-12-03T09:55:06.893Z,50.67
2022-12-03T09:56:06.870Z,49.88
2022-12-03T09:57:06.874Z,48.99
2022-12-03T09:58:06.894Z,51.3
2022-12-03T09:59:06.903Z,49.23
2022-12-03T10:00:06.896Z,49.23
2022-12-03T10:01:06.954Z,48.49
2022-12-03T10:02:06.999Z,50.73
2022-12-03T10:03:06.883Z,50.92
2022-12-03T10:04:06.939Z,52.96
2022-12-03T10:05:06.962Z,55.43
2022-12-03T10:06:06.885Z,53.43
2022-12-03T10:07:06.885Z,53.43
2022-12-03T10:08:06.940Z,52.12
2022-12-03T10:09:06.880Z,53.68
2022-12-03T10:10:06.905Z,53.68
2022-12-03T10:11:06.926Z,52.4
2022-12-03T10:12:06.898Z,52.61
2022-12-03T10:13:06.887Z,52.26
2022-12-03T10:14:06.908Z,52.6
2022-12-03T10:15:06.903Z,52.1
2022-12-03T10:16:06.886Z,52.3
2022-12-03T10:17:07.034Z,50.93
2022-12-03T10:18:06.890Z,51.6
2022-12-03T10:19:06.893Z,51.1
2022-12-03T10:20:06.898Z,51.1
2022-12-03T10:21:06.949Z,51.84
2022-12-03T10:22:06.885Z,51.49
2022-12-03T10:23:06.887Z,51.95
2022-12-03T10:24:06.883Z,52.45
2022-12-03T10:25:06.907Z,52.36
2022-12-03T10:26:06.879Z,52.55
2022-12-03T10:27:06.891Z,52.11
2022-12-03T10:28:06.888Z,51.46
2022-12-03T10:29:06.912Z,51.52
2022-12-03T10:30:06.884Z,51.52
2022-12-03T10:31:06.973Z,52.16
2022-12-03T10:32:06.890Z,52.52
2022-12-03T10:33:06.885Z,51.63
2022-12-03T10:34:06.891Z,51.29
2022-12-03T10:35:06.905Z,50.48
2022-12-03T10:36:06.891Z,51.59
2022-12-03T10:37:06.884Z,52.51
2022-12-03T10:38:06.893Z,52.15
2022-12-03T10:39:06.896Z,52.78
2022-12-03T10:40:06.983Z,52.78
2022-12-03T10:41:06.893Z,52.25
2022-12-03T10:42:06.888Z,53.5
2022-12-03T10:43:06.890Z,52.49
2022-12-03T10:44:06.902Z,53.05
2022-12-03T10:45:06.904Z,52.12
2022-12-03T10:46:06.930Z,52.53
2022-12-03T10:47:07.107Z,52.53
2022-12-03T10:48:06.877Z,52.53
2022-12-03T10:49:06.874Z,52.53
2022-12-03T10:50:06.885Z,52.49
2022-12-03T10:51:06.875Z,53
2022-12-03T10:52:06.880Z,53.32
2022-12-03T10:53:06.871Z,52.76
2022-12-03T10:54:06.876Z,52.44
2022-12-03T10:55:06.887Z,52.22
2022-12-03T10:56:06.877Z,51.89
2022-12-03T10:57:06.870Z,51.89
2022-12-03T10:58:06.872Z,53.09
2022-12-03T10:59:06.888Z,52.69
2022-12-03T11:00:06.892Z,53.18
2022-12-03T11:01:06.940Z,52.52
2022-12-03T11:02:06.937Z,51.9
2022-12-03T11:03:06.907Z,51.75
2022-12-03T11:04:06.986Z,51.51
2022-12-03T11:05:06.887Z,50.8
2022-12-03T11:06:06.869Z,52.08
2022-12-03T11:07:06.877Z,52.5
2022-12-03T11:08:06.955Z,51.77
2022-12-03T11:09:09.049Z,52.13
2022-12-03T11:10:06.912Z,52.13
2022-12-03T11:11:06.876Z,50.77
2022-12-03T11:12:06.871Z,50.67
2022-12-03T11:13:06.895Z,52.21
2022-12-03T11:14:06.904Z,51.08
2022-12-03T11:15:06.906Z,51
2022-12-03T11:16:06.910Z,51.56
2022-12-03T11:17:06.915Z,51.51
2022-12-03T11:18:06.870Z,53.1
2022-12-03T11:19:06.892Z,51.68
2022-12-03T11:20:06.884Z,51.68
2022-12-03T11:21:06.905Z,50.79
2022-12-03T11:22:06.891Z,50.63
2022-12-03T11:23:06.888Z,49.17
2022-12-03T11:24:06.891Z,49.46
2022-12-03T11:25:06.900Z,50.99
2022-12-03T11:26:06.892Z,49.38
2022-12-03T11:27:06.902Z,49.38
2022-12-03T11:28:06.894Z,51.58
2022-12-03T11:29:06.906Z,50.09
2022-12-03T11:30:06.891Z,50.09
2022-12-03T11:31:06.941Z,50.23
2022-12-03T11:32:06.887Z,50.73
2022-12-03T11:33:06.891Z,51.2
2022-12-03T11:34:06.874Z,49.16
2022-12-03T11:35:06.911Z,48.38
2022-12-03T11:36:06.884Z,48.35
2022-12-03T11:37:06.889Z,49.17
2022-12-03T11:38:06.887Z,51.15
2022-12-03T11:39:06.886Z,50.63
2022-12-03T11:40:06.904Z,50.63
2022-12-03T11:41:06.892Z,51
2022-12-03T11:42:06.881Z,51.37
2022-12-03T11:43:06.902Z,51
2022-12-03T11:44:06.900Z,51.47
2022-12-03T11:45:06.905Z,49.92
2022-12-03T11:46:06.963Z,49.3
2022-12-03T11:47:06.948Z,49.98
2022-12-03T11:48:06.892Z,50.72
2022-12-03T11:49:06.891Z,50.72
2022-12-03T11:50:06.885Z,50.72
2022-12-03T11:51:06.886Z,51.08
2022-12-03T11:52:06.890Z,51.5
2022-12-03T11:53:06.887Z,50.74
2022-12-03T11:54:06.893Z,51
2022-12-03T11:55:06.905Z,49.33
2022-12-03T11:56:06.875Z,48.66
2022-12-03T11:57:06.882Z,48.59
2022-12-03T11:58:06.889Z,47.39
2022-12-03T11:59:06.899Z,50.76
2022-12-03T12:00:06.912Z,50.76
2022-12-03T12:01:06.873Z,50.58
2022-12-03T12:02:06.891Z,50.92
2022-12-03T12:03:06.967Z,50.92
2022-12-03T12:04:06.924Z,50.74
2022-12-03T12:05:06.888Z,51.09
2022-12-03T12:06:06.870Z,50.71
2022-12-03T12:07:06.874Z,50.34
2022-12-03T12:08:07.154Z,50.83
2022-12-03T12:09:06.878Z,50.44
2022-12-03T12:10:06.902Z,51.69
2022-12-03T12:11:06.869Z,50.64
2022-12-03T12:12:06.873Z,50.75
2022-12-03T12:13:06.870Z,50.95
2022-12-03T12:14:06.883Z,49.91
2022-12-03T12:15:06.881Z,50.21
2022-12-03T12:16:06.928Z,49.48
2022-12-03T12:17:06.872Z,50.15
2022-12-03T12:18:06.874Z,50.31
2022-12-03T12:19:06.876Z,50.21
2022-12-03T12:20:06.888Z,50.69
2022-12-03T12:21:06.869Z,49.56
2022-12-03T12:22:06.870Z,49.56
2022-12-03T12:23:06.884Z,50.01
2022-12-03T12:24:06.883Z,49.34
2022-12-03T12:25:06.905Z,50.47
2022-12-03T12:26:06.884Z,50.5
2022-12-03T12:27:06.881Z,51.2
2022-12-03T12:28:06.886Z,50.16
2022-12-03T12:29:06.908Z,49.69
2022-12-03T12:30:06.897Z,49.69
2022-12-03T12:31:06.969Z,50.88
2022-12-03T12:32:07.018Z,50.92
2022-12-03T12:33:06.893Z,50.13
2022-12-03T12:34:06.887Z,50.11
2022-12-03T12:35:06.901Z,49.95
2022-12-03T12:36:06.901Z,49.89
2022-12-03T12:37:06.887Z,49.48
2022-12-03T12:38:06.881Z,49.92
2022-12-03T12:39:06.885Z,49.38
2022-12-03T12:40:06.883Z,49.38
2022-12-03T12:41:06.888Z,50.07
2022-12-03T12:42:06.890Z,49.89
2022-12-03T12:43:12.665Z,49.26
2022-12-03T12:44:06.905Z,49.5
2022-12-03T12:45:07.076Z,49.9
2022-12-03T12:46:38.715Z,49.39
2022-12-03T12:47:06.931Z,49.67
2022-12-03T12:48:06.890Z,50.95
2022-12-03T12:49:06.884Z,50.99
2022-12-03T12:50:06.890Z,50.99
2022-12-03T12:51:06.887Z,49.72
2022-12-03T12:52:06.889Z,49.11
2022-12-03T12:53:06.887Z,49.6
2022-12-03T12:54:06.891Z,50.1
2022-12-03T12:55:06.906Z,49.28